sensor_id;sensor_type;location;lat;lon;timestamp;temperature;humidity
9762;DHT22;4920;49.594;11.022;2022-08-02T00:01:43;17.90;44.70
9762;DHT22;4920;49.594;11.022;2022-08-02T00:04:13;17.80;99.90
9762;DHT22;4920;49.594;11.022;2022-08-02T00:06:42;17.80;99.90
9762;DHT22;4920;49.594;11.022;2022-08-02T00:09:10;17.80;99.90
9762;DHT22;4920;49.594;11.022;2022-08-02T00:11:38;17.80;99.90
9762;DHT22;4920;49.594;11.022;2022-08-02T00:14:09;17.80;99.90
9762;DHT22;4920;49.594;11.022;2022-08-02T00:16:37;17.70;99.90
9762;DHT22;4920;49.594;11.022;2022-08-02T00:19:06;17.70;99.90
9762;DHT22;4920;49.594;11.022;2022-08-02T00:21:35;17.70;99.90
9762;DHT22;4920;49.594;11.022;2022-08-02T00:24:04;17.60;1.00
9762;DHT22;4920;49.594;11.022;2022-08-02T00:26:53;17.50;1.00
9762;DHT22;4920;49.594;11.022;2022-08-02T00:29:21;17.50;1.00
9762;DHT22;4920;49.594;11.022;2022-08-02T00:31:49;17.40;1.00
9762;DHT22;4920;49.594;11.022;2022-08-02T00:34:18;17.40;1.00
9762;DHT22;4920;49.594;11.022;2022-08-02T00:36:58;17.40;1.00
9762;DHT22;4920;49.594;11.022;2022-08-02T00:39:26;17.30;50.10
9762;DHT22;4920;49.594;11.022;2022-08-02T00:42:02;17.30;99.90
9762;DHT22;4920;49.594;11.022;2022-08-02T00:44:30;17.20;99.90
9762;DHT22;4920;49.594;11.022;2022-08-02T00:46:59;17.20;99.90
9762;DHT22;4920;49.594;11.022;2022-08-02T00:49:27;17.10;99.90
9762;DHT22;4920;49.594;11.022;2022-08-02T00:51:57;17.10;1.00
9762;DHT22;4920;49.594;11.022;2022-08-02T00:54:25;17.00;1.00
9762;DHT22;4920;49.594;11.022;2022-08-02T00:56:54;17.00;1.00
9762;DHT22;4920;49.594;11.022;2022-08-02T00:59:22;17.00;99.90
9762;DHT22;4920;49.594;11.022;2022-08-02T01:01:50;17.00;99.90
9762;DHT22;4920;49.594;11.022;2022-08-02T01:04:24;16.90;1.00
9762;DHT22;4920;49.594;11.022;2022-08-02T01:06:59;16.90;28.20
9762;DHT22;4920;49.594;11.022;2022-08-02T01:09:40;16.90;99.90
9762;DHT22;4920;49.594;11.022;2022-08-02T01:12:09;16.90;70.40
9762;DHT22;4920;49.594;11.022;2022-08-02T01:14:40;16.80;99.90
9762;DHT22;4920;49.594;11.022;2022-08-02T01:17:14;16.80;1.00
9762;DHT22;4920;49.594;11.022;2022-08-02T01:19:56;16.80;1.00
9762;DHT22;4920;49.594;11.022;2022-08-02T01:22:45;16.80;1.00
9762;DHT22;4920;49.594;11.022;2022-08-02T01:25:44;16.80;99.90
9762;DHT22;4920;49.594;11.022;2022-08-02T01:28:27;16.70;99.90
9762;DHT22;4920;49.594;11.022;2022-08-02T01:31:00;16.70;99.90
9762;DHT22;4920;49.594;11.022;2022-08-02T01:33:35;16.60;1.00
9762;DHT22;4920;49.594;11.022;2022-08-02T01:36:09;16.60;99.90
9762;DHT22;4920;49.594;11.022;2022-08-02T01:38:41;16.70;99.90
9762;DHT22;4920;49.594;11.022;2022-08-02T01:41:15;16.80;1.00
9762;DHT22;4920;49.594;11.022;2022-08-02T01:43:50;16.70;40.00
9762;DHT22;4920;49.594;11.022;2022-08-02T01:46:19;16.60;1.00
9762;DHT22;4920;49.594;11.022;2022-08-02T01:48:49;16.60;99.90
9762;DHT22;4920;49.594;11.022;2022-08-02T01:51:20;16.60;1.00
9762;DHT22;4920;49.594;11.022;2022-08-02T01:54:13;16.50;99.90
9762;DHT22;4920;49.594;11.022;2022-08-02T01:56:43;16.50;99.90
9762;DHT22;4920;49.594;11.022;2022-08-02T01:59:17;16.50;1.00
9762;DHT22;4920;49.594;11.022;2022-08-02T02:01:48;16.60;1.00
9762;DHT22;4920;49.594;11.022;2022-08-02T02:04:18;16.60;99.90
9762;DHT22;4920;49.594;11.022;2022-08-02T02:06:48;16.60;99.90
9762;DHT22;4920;49.594;11.022;2022-08-02T02:09:18;16.50;1.00
9762;DHT22;4920;49.594;11.022;2022-08-02T02:11:49;16.50;99.90
9762;DHT22;4920;49.594;11.022;2022-08-02T02:14:40;16.50;99.90
9762;DHT22;4920;49.594;11.022;2022-08-02T02:17:19;16.40;1.00
9762;DHT22;4920;49.594;11.022;2022-08-02T02:20:12;16.30;1.00
9762;DHT22;4920;49.594;11.022;2022-08-02T02:22:41;16.30;99.90
9762;DHT22;4920;49.594;11.022;2022-08-02T02:25:11;16.20;99.90
9762;DHT22;4920;49.594;11.022;2022-08-02T02:27:47;16.20;99.90
9762;DHT22;4920;49.594;11.022;2022-08-02T02:30:18;16.20;1.00
9762;DHT22;4920;49.594;11.022;2022-08-02T02:32:49;16.20;1.00
9762;DHT22;4920;49.594;11.022;2022-08-02T02:35:21;16.20;1.00
9762;DHT22;4920;49.594;11.022;2022-08-02T02:37:51;16.10;1.00
9762;DHT22;4920;49.594;11.022;2022-08-02T02:40:23;16.10;1.00
9762;DHT22;4920;49.594;11.022;2022-08-02T02:42:54;16.10;73.40
9762;DHT22;4920;49.594;11.022;2022-08-02T02:45:24;16.00;74.30
9762;DHT22;4920;49.594;11.022;2022-08-02T02:47:54;16.00;99.90
9762;DHT22;4920;49.594;11.022;2022-08-02T02:50:23;15.90;99.90
9762;DHT22;4920;49.594;11.022;2022-08-02T02:52:52;16.00;1.00
9762;DHT22;4920;49.594;11.022;2022-08-02T02:55:21;16.00;1.00
9762;DHT22;4920;49.594;11.022;2022-08-02T02:57:51;16.00;1.00
9762;DHT22;4920;49.594;11.022;2022-08-02T03:00:21;15.90;1.00
9762;DHT22;4920;49.594;11.022;2022-08-02T03:03:11;15.80;48.90
9762;DHT22;4920;49.594;11.022;2022-08-02T03:05:40;15.80;99.90
9762;DHT22;4920;49.594;11.022;2022-08-02T03:08:08;15.70;99.90
9762;DHT22;4920;49.594;11.022;2022-08-02T03:10:37;15.70;99.90
9762;DHT22;4920;49.594;11.022;2022-08-02T03:13:06;15.60;99.90
9762;DHT22;4920;49.594;11.022;2022-08-02T03:15:37;15.60;1.00
9762;DHT22;4920;49.594;11.022;2022-08-02T03:18:06;15.50;1.00
9762;DHT22;4920;49.594;11.022;2022-08-02T03:20:36;15.50;1.00
9762;DHT22;4920;49.594;11.022;2022-08-02T03:23:04;15.50;1.00
9762;DHT22;4920;49.594;11.022;2022-08-02T03:25:33;15.40;1.00
9762;DHT22;4920;49.594;11.022;2022-08-02T03:28:02;15.40;1.00
9762;DHT22;4920;49.594;11.022;2022-08-02T03:30:30;15.30;1.00
9762;DHT22;4920;49.594;11.022;2022-08-02T03:32:59;15.30;15.00
9762;DHT22;4920;49.594;11.022;2022-08-02T03:35:27;15.30;99.90
9762;DHT22;4920;49.594;11.022;2022-08-02T03:37:58;15.20;99.90
9762;DHT22;4920;49.594;11.022;2022-08-02T03:40:27;15.20;99.90
9762;DHT22;4920;49.594;11.022;2022-08-02T03:42:56;15.30;99.90
9762;DHT22;4920;49.594;11.022;2022-08-02T03:45:25;15.30;99.90
9762;DHT22;4920;49.594;11.022;2022-08-02T03:47:53;15.30;99.90
9762;DHT22;4920;49.594;11.022;2022-08-02T03:50:25;15.30;99.90
9762;DHT22;4920;49.594;11.022;2022-08-02T03:52:54;15.20;99.90
9762;DHT22;4920;49.594;11.022;2022-08-02T03:55:25;15.20;1.00
9762;DHT22;4920;49.594;11.022;2022-08-02T03:57:53;15.30;1.00
9762;DHT22;4920;49.594;11.022;2022-08-02T04:00:22;15.30;1.00
9762;DHT22;4920;49.594;11.022;2022-08-02T04:02:51;15.30;1.00
9762;DHT22;4920;49.594;11.022;2022-08-02T04:05:19;15.40;1.00
9762;DHT22;4920;49.594;11.022;2022-08-02T04:07:48;15.40;1.00
9762;DHT22;4920;49.594;11.022;2022-08-02T04:10:38;15.40;1.00
9762;DHT22;4920;49.594;11.022;2022-08-02T04:13:27;15.50;1.00
9762;DHT22;4920;49.594;11.022;2022-08-02T04:16:05;15.60;99.90
9762;DHT22;4920;49.594;11.022;2022-08-02T04:18:39;15.60;99.90
9762;DHT22;4920;49.594;11.022;2022-08-02T04:25:15;15.80;1.00
9762;DHT22;4920;49.594;11.022;2022-08-02T04:27:45;15.90;1.00
9762;DHT22;4920;49.594;11.022;2022-08-02T04:30:34;16.00;1.00
9762;DHT22;4920;49.594;11.022;2022-08-02T04:33:03;16.10;99.90
9762;DHT22;4920;49.594;11.022;2022-08-02T04:35:32;16.20;1.00
9762;DHT22;4920;49.594;11.022;2022-08-02T04:38:07;16.20;1.00
9762;DHT22;4920;49.594;11.022;2022-08-02T04:40:37;16.40;33.80
9762;DHT22;4920;49.594;11.022;2022-08-02T04:43:07;16.40;1.00
9762;DHT22;4920;49.594;11.022;2022-08-02T04:45:36;16.50;1.00
9762;DHT22;4920;49.594;11.022;2022-08-02T04:48:05;16.60;1.00
9762;DHT22;4920;49.594;11.022;2022-08-02T04:50:38;16.80;1.40
9762;DHT22;4920;49.594;11.022;2022-08-02T04:53:06;17.00;1.00
9762;DHT22;4920;49.594;11.022;2022-08-02T04:55:35;17.20;1.00
9762;DHT22;4920;49.594;11.022;2022-08-02T04:58:03;17.50;1.00
9762;DHT22;4920;49.594;11.022;2022-08-02T05:05:01;17.90;99.90
9762;DHT22;4920;49.594;11.022;2022-08-02T05:12:23;18.20;99.90
9762;DHT22;4920;49.594;11.022;2022-08-02T05:14:52;18.30;1.00
9762;DHT22;4920;49.594;11.022;2022-08-02T05:17:20;18.40;1.00
9762;DHT22;4920;49.594;11.022;2022-08-02T05:19:48;18.50;1.00
9762;DHT22;4920;49.594;11.022;2022-08-02T05:22:18;18.70;99.90
9762;DHT22;4920;49.594;11.022;2022-08-02T05:24:46;18.80;99.90
9762;DHT22;4920;49.594;11.022;2022-08-02T05:27:15;19.00;2.90
9762;DHT22;4920;49.594;11.022;2022-08-02T05:29:47;19.30;1.00
9762;DHT22;4920;49.594;11.022;2022-08-02T05:32:22;19.60;1.00
9762;DHT22;4920;49.594;11.022;2022-08-02T05:34:51;20.10;99.90
9762;DHT22;4920;49.594;11.022;2022-08-02T05:37:21;20.70;99.90
9762;DHT22;4920;49.594;11.022;2022-08-02T05:39:49;21.30;1.00
9762;DHT22;4920;49.594;11.022;2022-08-02T05:42:22;21.80;1.00
9762;DHT22;4920;49.594;11.022;2022-08-02T05:44:50;22.10;1.00
9762;DHT22;4920;49.594;11.022;2022-08-02T05:47:18;22.30;1.00
9762;DHT22;4920;49.594;11.022;2022-08-02T05:49:48;22.50;99.90
9762;DHT22;4920;49.594;11.022;2022-08-02T05:52:18;22.80;99.90
9762;DHT22;4920;49.594;11.022;2022-08-02T05:54:54;23.20;99.90
9762;DHT22;4920;49.594;11.022;2022-08-02T05:57:36;23.60;99.90
9762;DHT22;4920;49.594;11.022;2022-08-02T06:00:10;23.90;99.90
9762;DHT22;4920;49.594;11.022;2022-08-02T06:02:57;24.10;99.90
9762;DHT22;4920;49.594;11.022;2022-08-02T06:05:30;24.20;99.90
9762;DHT22;4920;49.594;11.022;2022-08-02T06:07:59;24.10;99.90
9762;DHT22;4920;49.594;11.022;2022-08-02T06:10:30;24.00;99.90
9762;DHT22;4920;49.594;11.022;2022-08-02T06:13:06;23.80;99.90
9762;DHT22;4920;49.594;11.022;2022-08-02T06:15:39;23.70;99.90
9762;DHT22;4920;49.594;11.022;2022-08-02T06:18:19;23.50;99.90
9762;DHT22;4920;49.594;11.022;2022-08-02T06:20:56;23.50;99.90
9762;DHT22;4920;49.594;11.022;2022-08-02T06:23:46;23.40;99.90
9762;DHT22;4920;49.594;11.022;2022-08-02T06:26:27;23.40;99.90
9762;DHT22;4920;49.594;11.022;2022-08-02T06:28:56;23.40;99.90
9762;DHT22;4920;49.594;11.022;2022-08-02T06:31:25;23.40;99.90
9762;DHT22;4920;49.594;11.022;2022-08-02T06:33:53;23.40;99.90
9762;DHT22;4920;49.594;11.022;2022-08-02T06:36:29;23.30;99.90
9762;DHT22;4920;49.594;11.022;2022-08-02T06:39:02;23.30;99.90
9762;DHT22;4920;49.594;11.022;2022-08-02T06:41:38;23.30;99.90
9762;DHT22;4920;49.594;11.022;2022-08-02T06:44:20;23.30;99.90
9762;DHT22;4920;49.594;11.022;2022-08-02T06:47:08;23.30;99.90
9762;DHT22;4920;49.594;11.022;2022-08-02T06:49:39;23.30;99.90
9762;DHT22;4920;49.594;11.022;2022-08-02T06:52:19;23.30;99.90
9762;DHT22;4920;49.594;11.022;2022-08-02T06:54:54;23.30;99.90
9762;DHT22;4920;49.594;11.022;2022-08-02T06:57:24;23.40;99.90
9762;DHT22;4920;49.594;11.022;2022-08-02T06:59:53;23.80;99.90
9762;DHT22;4920;49.594;11.022;2022-08-02T07:02:21;24.20;99.90
9762;DHT22;4920;49.594;11.022;2022-08-02T07:04:50;24.50;99.90
9762;DHT22;4920;49.594;11.022;2022-08-02T07:07:18;24.70;99.90
9762;DHT22;4920;49.594;11.022;2022-08-02T07:09:46;24.80;99.90
9762;DHT22;4920;49.594;11.022;2022-08-02T07:12:29;24.70;99.90
9762;DHT22;4920;49.594;11.022;2022-08-02T07:14:58;24.60;99.90
9762;DHT22;4920;49.594;11.022;2022-08-02T07:17:27;24.40;99.90
9762;DHT22;4920;49.594;11.022;2022-08-02T07:19:55;24.20;99.90
9762;DHT22;4920;49.594;11.022;2022-08-02T07:22:24;24.10;99.90
9762;DHT22;4920;49.594;11.022;2022-08-02T07:24:55;23.90;99.90
9762;DHT22;4920;49.594;11.022;2022-08-02T07:27:23;23.80;99.90
9762;DHT22;4920;49.594;11.022;2022-08-02T07:29:54;23.70;99.90
9762;DHT22;4920;49.594;11.022;2022-08-02T07:32:24;23.60;99.90
9762;DHT22;4920;49.594;11.022;2022-08-02T07:34:54;23.50;99.90
9762;DHT22;4920;49.594;11.022;2022-08-02T07:37:24;23.50;99.90
9762;DHT22;4920;49.594;11.022;2022-08-02T07:40:13;23.50;99.90
9762;DHT22;4920;49.594;11.022;2022-08-02T07:42:47;23.50;99.90
9762;DHT22;4920;49.594;11.022;2022-08-02T07:45:19;23.50;99.90
9762;DHT22;4920;49.594;11.022;2022-08-02T07:47:49;23.60;99.90
9762;DHT22;4920;49.594;11.022;2022-08-02T07:50:19;23.90;99.90
9762;DHT22;4920;49.594;11.022;2022-08-02T07:52:48;24.20;99.90
9762;DHT22;4920;49.594;11.022;2022-08-02T07:55:24;24.50;99.90
9762;DHT22;4920;49.594;11.022;2022-08-02T07:58:06;24.90;99.90
9762;DHT22;4920;49.594;11.022;2022-08-02T08:00:41;25.40;99.90
9762;DHT22;4920;49.594;11.022;2022-08-02T08:03:09;25.80;99.90
9762;DHT22;4920;49.594;11.022;2022-08-02T08:05:38;26.10;99.90
9762;DHT22;4920;49.594;11.022;2022-08-02T08:08:06;26.40;99.90
9762;DHT22;4920;49.594;11.022;2022-08-02T08:10:43;26.60;99.90
9762;DHT22;4920;49.594;11.022;2022-08-02T08:13:12;26.80;99.90
9762;DHT22;4920;49.594;11.022;2022-08-02T08:15:41;26.90;99.90
9762;DHT22;4920;49.594;11.022;2022-08-02T08:18:18;26.80;99.90
9762;DHT22;4920;49.594;11.022;2022-08-02T08:20:47;26.60;99.90
9762;DHT22;4920;49.594;11.022;2022-08-02T08:23:15;26.50;99.90
9762;DHT22;4920;49.594;11.022;2022-08-02T08:25:44;26.40;99.90
9762;DHT22;4920;49.594;11.022;2022-08-02T08:28:12;26.20;99.90
9762;DHT22;4920;49.594;11.022;2022-08-02T08:30:42;26.10;99.90
9762;DHT22;4920;49.594;11.022;2022-08-02T08:33:10;26.00;99.90
9762;DHT22;4920;49.594;11.022;2022-08-02T08:35:39;26.00;99.90
9762;DHT22;4920;49.594;11.022;2022-08-02T08:38:07;26.10;99.90
9762;DHT22;4920;49.594;11.022;2022-08-02T08:40:36;26.30;99.90
9762;DHT22;4920;49.594;11.022;2022-08-02T08:43:04;26.30;99.50
9762;DHT22;4920;49.594;11.022;2022-08-02T08:45:33;26.20;98.80
9762;DHT22;4920;49.594;11.022;2022-08-02T08:48:09;26.20;98.20
9762;DHT22;4920;49.594;11.022;2022-08-02T08:50:44;26.10;96.80
9762;DHT22;4920;49.594;11.022;2022-08-02T08:53:14;26.00;96.30
9762;DHT22;4920;49.594;11.022;2022-08-02T08:55:46;26.10;95.20
9762;DHT22;4920;49.594;11.022;2022-08-02T08:58:15;26.00;93.20
9762;DHT22;4920;49.594;11.022;2022-08-02T09:00:43;26.00;92.20
9762;DHT22;4920;49.594;11.022;2022-08-02T09:03:15;26.00;92.50
9762;DHT22;4920;49.594;11.022;2022-08-02T09:05:43;26.10;92.40
9762;DHT22;4920;49.594;11.022;2022-08-02T09:08:12;26.20;91.70
9762;DHT22;4920;49.594;11.022;2022-08-02T09:10:44;26.20;90.40
9762;DHT22;4920;49.594;11.022;2022-08-02T09:13:14;26.30;89.40
9762;DHT22;4920;49.594;11.022;2022-08-02T09:16:04;26.30;87.60
9762;DHT22;4920;49.594;11.022;2022-08-02T09:18:42;26.40;85.10
9762;DHT22;4920;49.594;11.022;2022-08-02T09:21:13;26.50;85.90
9762;DHT22;4920;49.594;11.022;2022-08-02T09:23:44;26.60;85.40
9762;DHT22;4920;49.594;11.022;2022-08-02T09:26:14;26.80;82.20
9762;DHT22;4920;49.594;11.022;2022-08-02T09:28:45;26.90;78.40
9762;DHT22;4920;49.594;11.022;2022-08-02T09:31:16;26.90;75.10
9762;DHT22;4920;49.594;11.022;2022-08-02T09:33:50;26.90;72.00
9762;DHT22;4920;49.594;11.022;2022-08-02T09:36:21;26.80;70.90
9762;DHT22;4920;49.594;11.022;2022-08-02T09:38:55;26.80;68.90
9762;DHT22;4920;49.594;11.022;2022-08-02T09:41:24;26.90;64.00
9762;DHT22;4920;49.594;11.022;2022-08-02T09:43:54;27.00;61.80
9762;DHT22;4920;49.594;11.022;2022-08-02T09:46:34;27.10;58.00
9762;DHT22;4920;49.594;11.022;2022-08-02T09:49:08;27.20;55.10
9762;DHT22;4920;49.594;11.022;2022-08-02T09:51:39;27.20;52.90
9762;DHT22;4920;49.594;11.022;2022-08-02T09:54:09;27.30;49.90
9762;DHT22;4920;49.594;11.022;2022-08-02T09:56:41;27.20;47.80
9762;DHT22;4920;49.594;11.022;2022-08-02T09:59:10;27.30;48.90
9762;DHT22;4920;49.594;11.022;2022-08-02T10:01:40;27.40;47.40
9762;DHT22;4920;49.594;11.022;2022-08-02T10:04:21;27.50;44.40
9762;DHT22;4920;49.594;11.022;2022-08-02T10:06:52;27.70;41.20
9762;DHT22;4920;49.594;11.022;2022-08-02T10:09:21;27.80;37.20
9762;DHT22;4920;49.594;11.022;2022-08-02T10:11:50;27.80;35.70
9762;DHT22;4920;49.594;11.022;2022-08-02T10:14:19;27.90;34.00
9762;DHT22;4920;49.594;11.022;2022-08-02T10:16:50;28.10;33.90
9762;DHT22;4920;49.594;11.022;2022-08-02T10:19:21;28.20;33.50
9762;DHT22;4920;49.594;11.022;2022-08-02T10:22:12;28.50;50.00
9762;DHT22;4920;49.594;11.022;2022-08-02T10:24:44;28.70;28.20
9762;DHT22;4920;49.594;11.022;2022-08-02T10:27:16;28.90;25.70
9762;DHT22;4920;49.594;11.022;2022-08-02T10:29:47;29.00;21.60
9762;DHT22;4920;49.594;11.022;2022-08-02T10:32:25;28.90;20.70
9762;DHT22;4920;49.594;11.022;2022-08-02T10:34:59;28.90;20.00
9762;DHT22;4920;49.594;11.022;2022-08-02T10:37:47;28.90;19.60
9762;DHT22;4920;49.594;11.022;2022-08-02T10:40:17;29.10;20.00
9762;DHT22;4920;49.594;11.022;2022-08-02T10:42:54;29.30;15.60
9762;DHT22;4920;49.594;11.022;2022-08-02T10:45:27;29.30;14.80
9762;DHT22;4920;49.594;11.022;2022-08-02T10:47:57;29.20;14.00
9762;DHT22;4920;49.594;11.022;2022-08-02T10:50:53;29.20;13.00
9762;DHT22;4920;49.594;11.022;2022-08-02T10:53:28;29.20;11.50
9762;DHT22;4920;49.594;11.022;2022-08-02T10:55:58;29.30;10.60
9762;DHT22;4920;49.594;11.022;2022-08-02T10:58:28;29.30;9.70
9762;DHT22;4920;49.594;11.022;2022-08-02T11:01:03;29.30;8.70
9762;DHT22;4920;49.594;11.022;2022-08-02T11:03:39;29.20;9.10
9762;DHT22;4920;49.594;11.022;2022-08-02T11:06:11;29.20;8.50
9762;DHT22;4920;49.594;11.022;2022-08-02T11:09:26;29.30;7.60
9762;DHT22;4920;49.594;11.022;2022-08-02T11:12:00;29.40;7.20
9762;DHT22;4920;49.594;11.022;2022-08-02T11:14:30;29.50;6.70
9762;DHT22;4920;49.594;11.022;2022-08-02T11:17:10;29.60;4.60
9762;DHT22;4920;49.594;11.022;2022-08-02T11:20:13;29.70;4.00
9762;DHT22;4920;49.594;11.022;2022-08-02T11:22:44;29.90;2.80
9762;DHT22;4920;49.594;11.022;2022-08-02T11:25:33;30.10;1.90
9762;DHT22;4920;49.594;11.022;2022-08-02T11:28:21;30.20;1.00
9762;DHT22;4920;49.594;11.022;2022-08-02T11:30:59;30.20;1.00
9762;DHT22;4920;49.594;11.022;2022-08-02T11:33:32;30.20;1.00
9762;DHT22;4920;49.594;11.022;2022-08-02T11:36:04;30.30;1.00
9762;DHT22;4920;49.594;11.022;2022-08-02T11:38:34;30.40;1.00
9762;DHT22;4920;49.594;11.022;2022-08-02T11:41:03;30.40;1.00
9762;DHT22;4920;49.594;11.022;2022-08-02T11:43:36;30.50;1.00
9762;DHT22;4920;49.594;11.022;2022-08-02T11:46:12;30.50;1.00
9762;DHT22;4920;49.594;11.022;2022-08-02T11:48:41;30.50;10.50
9762;DHT22;4920;49.594;11.022;2022-08-02T11:51:12;30.40;1.00
9762;DHT22;4920;49.594;11.022;2022-08-02T11:53:44;30.50;1.00
9762;DHT22;4920;49.594;11.022;2022-08-02T11:56:14;30.40;1.00
9762;DHT22;4920;49.594;11.022;2022-08-02T11:59:01;30.50;1.00
9762;DHT22;4920;49.594;11.022;2022-08-02T12:01:30;30.60;1.00
9762;DHT22;4920;49.594;11.022;2022-08-02T12:04:16;30.90;1.00
9762;DHT22;4920;49.594;11.022;2022-08-02T12:06:56;31.00;3.50
9762;DHT22;4920;49.594;11.022;2022-08-02T12:09:28;31.20;1.00
9762;DHT22;4920;49.594;11.022;2022-08-02T12:11:57;31.30;1.00
9762;DHT22;4920;49.594;11.022;2022-08-02T12:14:28;31.30;1.00
9762;DHT22;4920;49.594;11.022;2022-08-02T12:16:57;31.40;1.00
9762;DHT22;4920;49.594;11.022;2022-08-02T12:19:43;31.50;1.00
9762;DHT22;4920;49.594;11.022;2022-08-02T12:22:16;31.60;1.00
9762;DHT22;4920;49.594;11.022;2022-08-02T12:24:48;31.50;1.00
9762;DHT22;4920;49.594;11.022;2022-08-02T12:27:34;31.30;1.00
9762;DHT22;4920;49.594;11.022;2022-08-02T12:30:05;31.30;1.00
9762;DHT22;4920;49.594;11.022;2022-08-02T12:32:35;31.40;1.00
9762;DHT22;4920;49.594;11.022;2022-08-02T12:35:06;31.40;1.00
9762;DHT22;4920;49.594;11.022;2022-08-02T12:37:36;31.50;1.00
9762;DHT22;4920;49.594;11.022;2022-08-02T12:40:20;31.60;1.00
9762;DHT22;4920;49.594;11.022;2022-08-02T12:42:53;31.70;1.00
9762;DHT22;4920;49.594;11.022;2022-08-02T12:45:22;31.80;1.00
9762;DHT22;4920;49.594;11.022;2022-08-02T12:47:52;31.90;1.00
9762;DHT22;4920;49.594;11.022;2022-08-02T12:50:24;32.00;1.00
9762;DHT22;4920;49.594;11.022;2022-08-02T12:53:02;32.10;1.00
9762;DHT22;4920;49.594;11.022;2022-08-02T12:55:35;32.20;1.00
9762;DHT22;4920;49.594;11.022;2022-08-02T12:58:27;32.30;1.00
9762;DHT22;4920;49.594;11.022;2022-08-02T13:00:57;32.40;1.00
9762;DHT22;4920;49.594;11.022;2022-08-02T13:03:25;32.30;1.00
9762;DHT22;4920;49.594;11.022;2022-08-02T13:06:14;32.10;1.00
9762;DHT22;4920;49.594;11.022;2022-08-02T13:09:11;31.70;1.00
9762;DHT22;4920;49.594;11.022;2022-08-02T13:11:41;31.60;1.00
9762;DHT22;4920;49.594;11.022;2022-08-02T13:14:10;31.50;1.00
9762;DHT22;4920;49.594;11.022;2022-08-02T13:16:40;31.60;1.00
9762;DHT22;4920;49.594;11.022;2022-08-02T13:19:09;31.70;1.00
9762;DHT22;4920;49.594;11.022;2022-08-02T13:21:39;31.80;1.00
9762;DHT22;4920;49.594;11.022;2022-08-02T13:24:27;31.90;1.00
9762;DHT22;4920;49.594;11.022;2022-08-02T13:27:07;32.00;1.00
9762;DHT22;4920;49.594;11.022;2022-08-02T13:29:36;31.90;1.00
9762;DHT22;4920;49.594;11.022;2022-08-02T13:32:04;31.90;1.00
9762;DHT22;4920;49.594;11.022;2022-08-02T13:34:33;32.00;1.00
9762;DHT22;4920;49.594;11.022;2022-08-02T13:37:01;32.00;1.00
9762;DHT22;4920;49.594;11.022;2022-08-02T13:39:30;31.90;1.00
9762;DHT22;4920;49.594;11.022;2022-08-02T13:41:58;32.00;1.00
9762;DHT22;4920;49.594;11.022;2022-08-02T13:44:28;31.80;1.00
9762;DHT22;4920;49.594;11.022;2022-08-02T13:46:56;31.80;1.00
9762;DHT22;4920;49.594;11.022;2022-08-02T13:49:24;31.60;1.00
9762;DHT22;4920;49.594;11.022;2022-08-02T13:52:13;31.40;1.00
9762;DHT22;4920;49.594;11.022;2022-08-02T13:54:42;31.30;1.00
9762;DHT22;4920;49.594;11.022;2022-08-02T13:57:10;31.10;1.00
9762;DHT22;4920;49.594;11.022;2022-08-02T13:59:40;31.10;1.00
9762;DHT22;4920;49.594;11.022;2022-08-02T14:02:25;31.10;1.00
9762;DHT22;4920;49.594;11.022;2022-08-02T14:04:54;31.10;1.00
9762;DHT22;4920;49.594;11.022;2022-08-02T14:07:22;31.10;1.00
9762;DHT22;4920;49.594;11.022;2022-08-02T14:09:51;31.20;1.00
9762;DHT22;4920;49.594;11.022;2022-08-02T14:12:19;31.30;1.00
9762;DHT22;4920;49.594;11.022;2022-08-02T14:14:49;31.40;1.00
9762;DHT22;4920;49.594;11.022;2022-08-02T14:17:18;31.50;1.00
9762;DHT22;4920;49.594;11.022;2022-08-02T14:19:46;31.60;1.00
9762;DHT22;4920;49.594;11.022;2022-08-02T14:22:16;31.70;1.00
9762;DHT22;4920;49.594;11.022;2022-08-02T14:24:45;31.80;1.00
9762;DHT22;4920;49.594;11.022;2022-08-02T14:27:13;31.90;1.00
9762;DHT22;4920;49.594;11.022;2022-08-02T14:29:41;31.70;1.00
9762;DHT22;4920;49.594;11.022;2022-08-02T14:32:11;31.60;1.00
9762;DHT22;4920;49.594;11.022;2022-08-02T14:34:40;31.50;1.00
9762;DHT22;4920;49.594;11.022;2022-08-02T14:37:10;31.50;1.00
9762;DHT22;4920;49.594;11.022;2022-08-02T14:39:39;31.40;1.00
9762;DHT22;4920;49.594;11.022;2022-08-02T14:42:25;31.50;1.00
9762;DHT22;4920;49.594;11.022;2022-08-02T14:44:54;31.40;1.00
9762;DHT22;4920;49.594;11.022;2022-08-02T14:47:23;31.40;1.00
9762;DHT22;4920;49.594;11.022;2022-08-02T14:49:52;31.50;1.00
9762;DHT22;4920;49.594;11.022;2022-08-02T14:52:20;31.50;1.00
9762;DHT22;4920;49.594;11.022;2022-08-02T14:54:48;31.50;1.00
9762;DHT22;4920;49.594;11.022;2022-08-02T14:57:17;31.50;1.00
9762;DHT22;4920;49.594;11.022;2022-08-02T14:59:45;31.60;1.00
9762;DHT22;4920;49.594;11.022;2022-08-02T15:02:13;31.80;1.00
9762;DHT22;4920;49.594;11.022;2022-08-02T15:04:44;31.80;1.00
9762;DHT22;4920;49.594;11.022;2022-08-02T15:07:12;31.80;1.00
9762;DHT22;4920;49.594;11.022;2022-08-02T15:09:41;31.90;1.00
9762;DHT22;4920;49.594;11.022;2022-08-02T15:12:10;32.00;1.00
9762;DHT22;4920;49.594;11.022;2022-08-02T15:14:39;31.90;1.00
9762;DHT22;4920;49.594;11.022;2022-08-02T15:17:08;31.80;1.00
9762;DHT22;4920;49.594;11.022;2022-08-02T15:19:37;31.70;1.00
9762;DHT22;4920;49.594;11.022;2022-08-02T15:22:28;31.60;1.00
9762;DHT22;4920;49.594;11.022;2022-08-02T15:24:59;31.70;1.00
9762;DHT22;4920;49.594;11.022;2022-08-02T15:27:27;31.80;1.00
9762;DHT22;4920;49.594;11.022;2022-08-02T15:29:55;31.80;1.00
9762;DHT22;4920;49.594;11.022;2022-08-02T15:32:26;31.80;1.00
9762;DHT22;4920;49.594;11.022;2022-08-02T15:34:55;31.70;1.00
9762;DHT22;4920;49.594;11.022;2022-08-02T15:37:23;31.60;1.00
9762;DHT22;4920;49.594;11.022;2022-08-02T15:39:58;31.60;1.00
9762;DHT22;4920;49.594;11.022;2022-08-02T15:42:27;31.70;1.00
9762;DHT22;4920;49.594;11.022;2022-08-02T15:44:57;31.80;1.00
9762;DHT22;4920;49.594;11.022;2022-08-02T15:47:25;31.80;1.00
9762;DHT22;4920;49.594;11.022;2022-08-02T15:49:54;31.70;1.00
9762;DHT22;4920;49.594;11.022;2022-08-02T15:52:24;31.80;1.00
9762;DHT22;4920;49.594;11.022;2022-08-02T15:54:53;31.80;1.00
9762;DHT22;4920;49.594;11.022;2022-08-02T15:57:23;31.80;1.00
9762;DHT22;4920;49.594;11.022;2022-08-02T15:59:51;31.80;1.00
9762;DHT22;4920;49.594;11.022;2022-08-02T16:02:20;31.80;1.00
9762;DHT22;4920;49.594;11.022;2022-08-02T16:04:49;31.80;1.00
9762;DHT22;4920;49.594;11.022;2022-08-02T16:07:17;31.60;1.00
9762;DHT22;4920;49.594;11.022;2022-08-02T16:09:46;31.50;1.00
9762;DHT22;4920;49.594;11.022;2022-08-02T16:12:14;31.50;1.00
9762;DHT22;4920;49.594;11.022;2022-08-02T16:14:44;31.60;1.00
9762;DHT22;4920;49.594;11.022;2022-08-02T16:17:12;31.50;1.00
9762;DHT22;4920;49.594;11.022;2022-08-02T16:20:01;31.40;1.00
9762;DHT22;4920;49.594;11.022;2022-08-02T16:22:29;31.40;1.00
9762;DHT22;4920;49.594;11.022;2022-08-02T16:24:58;31.40;1.00
9762;DHT22;4920;49.594;11.022;2022-08-02T16:27:26;31.40;1.00
9762;DHT22;4920;49.594;11.022;2022-08-02T16:29:57;31.40;1.00
9762;DHT22;4920;49.594;11.022;2022-08-02T16:32:26;31.30;1.00
9762;DHT22;4920;49.594;11.022;2022-08-02T16:34:54;31.20;1.00
9762;DHT22;4920;49.594;11.022;2022-08-02T16:37:34;31.10;1.00
9762;DHT22;4920;49.594;11.022;2022-08-02T16:40:18;31.20;1.00
9762;DHT22;4920;49.594;11.022;2022-08-02T16:42:47;31.20;1.00